createdAt,value
2023-03-15T00:01:40.493Z,4.03
2023-03-15T00:04:07.718Z,3.70
2023-03-15T00:06:34.771Z,3.67
2023-03-15T00:09:02.021Z,4.20
2023-03-15T00:11:32.515Z,3.80
2023-03-15T00:13:59.683Z,3.88
2023-03-15T00:16:27.247Z,3.88
2023-03-15T00:18:56.790Z,3.90
2023-03-15T00:21:23.956Z,3.95
2023-03-15T00:23:50.993Z,3.88
2023-03-15T00:26:17.830Z,4.00
2023-03-15T00:28:44.721Z,4.88
2023-03-15T00:31:20.408Z,4.85
2023-03-15T00:33:48.181Z,4.65
2023-03-15T00:36:15.694Z,4.40
2023-03-15T00:38:44.190Z,4.80
2023-03-15T00:41:13.808Z,4.30
2023-03-15T00:43:41.562Z,4.90
2023-03-15T00:46:08.575Z,4.85
2023-03-15T00:48:36.182Z,5.03
2023-03-15T00:51:11.982Z,5.35
2023-03-15T00:53:40.729Z,5.60
2023-03-15T00:56:10.816Z,5.72
2023-03-15T00:58:38.116Z,5.55
2023-03-15T01:01:10.453Z,5.82
2023-03-15T01:03:37.856Z,5.97
2023-03-15T01:06:17.661Z,5.78
2023-03-15T01:08:45.133Z,5.30
2023-03-15T01:11:14.545Z,5.30
2023-03-15T01:13:41.106Z,5.38
2023-03-15T01:16:11.494Z,5.03
2023-03-15T01:18:38.929Z,4.95
2023-03-15T01:21:10.289Z,4.63
2023-03-15T01:23:37.187Z,4.97
2023-03-15T01:26:05.904Z,4.80
2023-03-15T01:28:32.619Z,4.97
2023-03-15T01:31:00.060Z,5.00
2023-03-15T01:33:27.466Z,5.15
2023-03-15T01:36:05.781Z,4.72
2023-03-15T01:38:33.724Z,4.65
2023-03-15T01:41:00.625Z,4.38
2023-03-15T01:43:28.787Z,4.50
2023-03-15T01:46:01.846Z,4.43
2023-03-15T01:48:44.707Z,4.30
2023-03-15T01:51:23.275Z,4.70
2023-03-15T01:54:21.225Z,4.47
2023-03-15T01:56:54.960Z,4.80
2023-03-15T01:59:26.888Z,4.40
2023-03-15T02:01:54.945Z,4.53
2023-03-15T02:04:36.302Z,4.55
2023-03-15T02:07:04.165Z,4.47
2023-03-15T02:09:44.228Z,4.88
2023-03-15T02:12:11.929Z,4.28
2023-03-15T02:14:39.331Z,4.93
2023-03-15T02:17:07.942Z,4.28
2023-03-15T02:19:40.751Z,4.65
2023-03-15T02:22:36.761Z,4.90
2023-03-15T02:25:17.194Z,4.75
2023-03-15T02:27:44.668Z,5.00
2023-03-15T02:30:11.929Z,4.85
2023-03-15T02:32:38.918Z,4.90
2023-03-15T02:35:05.868Z,5.00
2023-03-15T02:37:32.404Z,4.90
2023-03-15T02:39:58.959Z,5.50
2023-03-15T02:42:26.389Z,4.95
2023-03-15T02:44:57.465Z,5.07
2023-03-15T02:47:27.910Z,5.50
2023-03-15T02:49:54.816Z,5.30
2023-03-15T02:52:22.913Z,5.72
2023-03-15T02:54:50.136Z,5.25
2023-03-15T02:57:18.896Z,5.75
2023-03-15T02:59:46.862Z,5.65
2023-03-15T03:02:13.458Z,5.60
2023-03-15T03:04:42.052Z,5.93
2023-03-15T03:07:09.387Z,6.10
2023-03-15T03:09:57.167Z,6.50
2023-03-15T03:12:25.057Z,7.18
2023-03-15T03:14:52.574Z,7.22
2023-03-15T03:17:23.452Z,7.32
2023-03-15T03:19:51.613Z,8.25
2023-03-15T03:22:25.649Z,8.77
2023-03-15T03:24:52.307Z,9.13
2023-03-15T03:27:19.170Z,10.13
2023-03-15T03:29:47.153Z,10.85
2023-03-15T03:32:14.550Z,11.35
2023-03-15T03:34:41.569Z,11.50
2023-03-15T03:37:08.355Z,11.68
2023-03-15T03:39:53.723Z,10.88
2023-03-15T03:42:20.620Z,12.40
2023-03-15T03:44:50.213Z,11.93
2023-03-15T03:47:17.494Z,12.10
2023-03-15T03:49:44.503Z,12.02
2023-03-15T03:52:11.114Z,11.95
2023-03-15T03:54:37.625Z,11.63
2023-03-15T03:57:04.885Z,11.60
2023-03-15T03:59:34.629Z,11.43
2023-03-15T04:02:05.516Z,11.65
2023-03-15T04:04:32.845Z,11.00
2023-03-15T04:06:59.592Z,11.20
2023-03-15T04:09:31.888Z,11.35
2023-03-15T04:11:58.477Z,11.35
2023-03-15T04:14:25.373Z,11.02
2023-03-15T04:16:51.950Z,11.85
2023-03-15T04:19:20.212Z,11.30
2023-03-15T04:21:47.468Z,10.13
2023-03-15T04:24:34.956Z,10.05
2023-03-15T04:27:19.313Z,10.18
2023-03-15T04:29:59.762Z,10.88
2023-03-15T04:32:44.810Z,11.00
2023-03-15T04:35:23.117Z,11.10
2023-03-15T04:38:15.910Z,10.20
2023-03-15T04:40:56.546Z,10.32
2023-03-15T04:43:44.042Z,10.52
2023-03-15T04:46:27.943Z,10.07
2023-03-15T04:49:08.163Z,9.40
2023-03-15T04:52:04.046Z,10.13
2023-03-15T04:54:49.020Z,9.43
2023-03-15T04:57:31.060Z,10.27
2023-03-15T05:00:30.073Z,10.30
2023-03-15T05:03:19.530Z,9.88
2023-03-15T05:06:10.614Z,10.50
2023-03-15T05:08:39.788Z,10.07
2023-03-15T05:11:33.564Z,10.15
2023-03-15T05:14:09.504Z,9.55
2023-03-15T05:16:39.158Z,11.10
2023-03-15T05:19:16.057Z,10.07
2023-03-15T05:21:58.729Z,10.75
2023-03-15T05:24:45.558Z,10.63
2023-03-15T05:27:32.612Z,10.38
2023-03-15T05:30:23.426Z,10.85
2023-03-15T05:33:05.021Z,10.82
2023-03-15T05:35:47.308Z,11.32
2023-03-15T05:38:14.598Z,10.88
2023-03-15T05:41:18.060Z,11.55
2023-03-15T05:44:03.765Z,11.93
2023-03-15T05:46:49.073Z,11.60
2023-03-15T05:49:33.274Z,12.70
2023-03-15T05:52:20.065Z,12.23
2023-03-15T05:54:56.698Z,12.57
2023-03-15T05:57:43.899Z,12.68
2023-03-15T06:00:29.964Z,12.85
2023-03-15T06:03:03.086Z,13.88
2023-03-15T06:05:38.642Z,13.13
2023-03-15T06:08:09.919Z,13.35
2023-03-15T06:10:40.766Z,13.43
2023-03-15T06:13:09.729Z,13.68
2023-03-15T06:15:36.407Z,13.40
2023-03-15T06:18:03.012Z,13.80
2023-03-15T06:20:31.814Z,13.18
2023-03-15T06:23:03.881Z,13.13
2023-03-15T06:25:39.009Z,13.63
2023-03-15T06:28:05.657Z,13.85
2023-03-15T06:30:32.728Z,13.75
2023-03-15T06:33:01.232Z,13.60
2023-03-15T06:35:29.865Z,13.60
2023-03-15T06:37:56.437Z,13.55
2023-03-15T06:40:22.933Z,13.10
2023-03-15T06:42:50.379Z,13.63
2023-03-15T06:45:18.904Z,13.15
2023-03-15T06:47:46.612Z,12.98
2023-03-15T06:50:13.609Z,13.60
2023-03-15T06:52:40.261Z,13.20
2023-03-15T06:55:07.541Z,13.65
2023-03-15T06:57:34.040Z,13.10
2023-03-15T07:00:00.549Z,12.82
2023-03-15T07:02:27.144Z,13.07
2023-03-15T07:04:53.671Z,13.40
2023-03-15T07:07:20.297Z,12.75
2023-03-15T07:09:46.822Z,13.13
2023-03-15T07:12:13.584Z,12.45
2023-03-15T07:14:40.187Z,13.77
2023-03-15T07:17:06.845Z,13.20
2023-03-15T07:19:34.609Z,13.63
2023-03-15T07:22:02.443Z,12.63
2023-03-15T07:24:29.045Z,12.57
2023-03-15T07:26:56.538Z,12.15
2023-03-15T07:29:24.369Z,12.68
2023-03-15T07:31:51.472Z,12.65
2023-03-15T07:34:18.349Z,12.90
2023-03-15T07:36:45.071Z,12.68
2023-03-15T07:39:11.687Z,12.85
2023-03-15T07:41:38.337Z,12.40
2023-03-15T07:44:13.309Z,13.65
2023-03-15T07:46:39.853Z,12.70
2023-03-15T07:49:06.607Z,12.27
2023-03-15T07:51:33.268Z,11.27
2023-03-15T07:53:59.796Z,11.55
2023-03-15T07:56:26.327Z,10.60
2023-03-15T07:58:52.873Z,10.23
2023-03-15T08:01:19.401Z,9.77
2023-03-15T08:03:45.928Z,8.73
2023-03-15T08:06:12.450Z,9.45
2023-03-15T08:08:39.018Z,10.43
2023-03-15T08:11:06.241Z,8.68
2023-03-15T08:13:33.728Z,9.27
2023-03-15T08:16:00.265Z,8.65
2023-03-15T08:18:28.915Z,7.70
2023-03-15T08:20:56.093Z,7.32
2023-03-15T08:23:22.726Z,8.75
2023-03-15T08:25:50.010Z,8.00
2023-03-15T08:28:17.269Z,6.60
2023-03-15T08:30:43.841Z,6.47
2023-03-15T08:33:12.503Z,7.05
2023-03-15T08:35:39.138Z,6.40
2023-03-15T08:38:05.642Z,7.95
2023-03-15T08:40:32.194Z,8.40
2023-03-15T08:42:59.729Z,7.68
2023-03-15T08:45:26.760Z,8.93
2023-03-15T08:47:57.714Z,6.45
2023-03-15T08:50:25.807Z,6.75
2023-03-15T08:52:52.412Z,6.53
2023-03-15T08:55:19.371Z,6.68
2023-03-15T08:57:46.386Z,6.38
2023-03-15T09:00:20.990Z,6.68
2023-03-15T09:02:48.789Z,7.28
2023-03-15T09:05:16.874Z,7.45
2023-03-15T09:07:44.317Z,6.90
2023-03-15T09:10:14.887Z,7.90
2023-03-15T09:12:50.091Z,6.78
2023-03-15T09:15:16.994Z,5.70
2023-03-15T09:17:43.612Z,5.60
2023-03-15T09:20:15.331Z,6.03
2023-03-15T09:22:53.551Z,6.10
2023-03-15T09:25:20.852Z,6.60
2023-03-15T09:27:47.405Z,4.72
2023-03-15T09:30:14.746Z,5.53
2023-03-15T09:32:43.370Z,7.05
2023-03-15T09:35:13.919Z,6.43
2023-03-15T09:37:42.352Z,7.30
2023-03-15T09:40:38.900Z,4.47
2023-03-15T09:43:13.849Z,5.97
2023-03-15T09:46:05.921Z,4.97
2023-03-15T09:48:50.462Z,6.28
2023-03-15T09:51:35.551Z,5.30
2023-03-15T09:54:02.009Z,8.32
2023-03-15T09:56:33.913Z,5.80
2023-03-15T10:01:38.595Z,5.25
2023-03-15T10:04:25.158Z,6.28
2023-03-15T10:06:57.581Z,6.78
2023-03-15T10:09:26.733Z,7.10
2023-03-15T10:12:03.415Z,7.80
2023-03-15T10:14:51.827Z,5.10
2023-03-15T10:17:41.439Z,6.70
2023-03-15T10:20:24.968Z,4.43
2023-03-15T10:23:39.342Z,5.32
2023-03-15T10:26:13.866Z,4.68
2023-03-15T10:28:40.812Z,3.90
2023-03-15T10:31:25.731Z,5.05
2023-03-15T10:33:59.385Z,6.88
2023-03-15T10:36:26.278Z,3.40
2023-03-15T10:38:53.105Z,5.50
2023-03-15T10:41:39.593Z,4.05
2023-03-15T10:44:15.982Z,4.65
2023-03-15T10:46:42.595Z,6.20
2023-03-15T10:49:12.649Z,4.97
2023-03-15T10:51:44.853Z,7.13
2023-03-15T10:54:16.388Z,4.05
2023-03-15T10:56:57.698Z,3.60
2023-03-15T10:59:26.891Z,5.30
2023-03-15T11:02:07.867Z,5.28
2023-03-15T11:04:34.572Z,5.40
2023-03-15T11:07:03.759Z,3.97
2023-03-15T11:09:42.422Z,3.92
2023-03-15T11:12:24.184Z,3.65
2023-03-15T11:14:55.833Z,4.15
2023-03-15T11:17:30.643Z,3.50
2023-03-15T11:20:13.486Z,3.40
2023-03-15T11:22:40.514Z,3.47
2023-03-15T11:25:15.183Z,4.18
2023-03-15T11:27:43.529Z,4.95
2023-03-15T11:30:14.691Z,5.32
2023-03-15T11:32:43.264Z,3.55
2023-03-15T11:35:22.607Z,4.35
2023-03-15T11:37:58.524Z,3.97
2023-03-15T11:40:34.538Z,4.78
2023-03-15T11:43:06.538Z,3.92
2023-03-15T11:45:42.497Z,5.55
2023-03-15T11:48:46.531Z,4.45
2023-03-15T11:51:13.712Z,4.30
2023-03-15T11:53:45.874Z,4.47
2023-03-15T11:56:27.532Z,3.70
2023-03-15T11:59:11.288Z,4.40
2023-03-15T12:01:42.336Z,4.00
2023-03-15T12:04:36.585Z,3.70
2023-03-15T12:07:06.363Z,3.50
2023-03-15T12:09:32.891Z,3.95
2023-03-15T12:12:02.169Z,3.97
2023-03-15T12:14:31.142Z,3.90
2023-03-15T12:17:26.965Z,3.88
2023-03-15T12:20:14.621Z,4.22
2023-03-15T12:22:55.114Z,5.32
2023-03-15T12:25:39.444Z,5.60
2023-03-15T12:28:23.424Z,3.90
2023-03-15T12:30:57.124Z,3.90
2023-03-15T12:33:25.379Z,4.00
2023-03-15T12:36:00.673Z,3.72
2023-03-15T12:38:35.635Z,3.75
2023-03-15T12:41:07.932Z,3.83
2023-03-15T12:43:38.868Z,3.90
2023-03-15T12:46:06.291Z,3.80
2023-03-15T12:48:33.220Z,3.65
2023-03-15T12:51:03.816Z,3.78
2023-03-15T12:53:38.121Z,3.50
2023-03-15T12:56:24.669Z,3.58
2023-03-15T12:58:58.268Z,3.40
2023-03-15T13:01:26.652Z,5.22
2023-03-15T13:03:58.187Z,3.88
2023-03-15T13:06:50.503Z,2.92
2023-03-15T13:09:21.199Z,3.50
2023-03-15T13:11:59.707Z,3.40
2023-03-15T13:14:32.156Z,3.30
2023-03-15T13:17:17.326Z,3.50
2023-03-15T13:19:46.905Z,3.88
2023-03-15T13:22:32.570Z,3.85
2023-03-15T13:24:59.072Z,3.80
2023-03-15T13:27:59.166Z,3.50
2023-03-15T13:30:36.568Z,3.42
2023-03-15T13:33:20.945Z,3.30
2023-03-15T13:35:55.014Z,3.63
2023-03-15T13:38:34.980Z,3.70
2023-03-15T13:41:04.021Z,3.50
2023-03-15T13:43:34.317Z,3.70
2023-03-15T13:46:01.780Z,4.00
2023-03-15T13:48:36.452Z,3.60
2023-03-15T13:51:34.901Z,3.42
2023-03-15T13:54:11.051Z,3.50
2023-03-15T13:56:49.852Z,3.45
2023-03-15T13:59:17.955Z,3.30
2023-03-15T14:01:44.798Z,3.55
2023-03-15T14:04:18.480Z,3.47
2023-03-15T14:06:46.003Z,3.80
2023-03-15T14:09:25.969Z,3.80
2023-03-15T14:12:07.278Z,3.33
2023-03-15T14:14:38.571Z,3.38
2023-03-15T14:17:19.221Z,3.58
2023-03-15T14:19:54.361Z,3.35
2023-03-15T14:22:21.557Z,3.50
2023-03-15T14:24:51.012Z,3.30
2023-03-15T14:27:27.470Z,3.10
2023-03-15T14:30:02.571Z,3.15
2023-03-15T14:32:35.606Z,3.35
2023-03-15T14:35:20.170Z,3.63
2023-03-15T14:37:47.053Z,3.60
2023-03-15T14:40:23.226Z,3.70
2023-03-15T14:42:50.847Z,3.67
2023-03-15T14:45:18.570Z,3.80
2023-03-15T14:47:57.822Z,3.60
2023-03-15T14:50:27.860Z,3.85
2023-03-15T14:52:56.945Z,3.70
2023-03-15T14:55:28.304Z,3.25
2023-03-15T14:57:55.387Z,3.70
2023-03-15T15:00:22.211Z,3.58
2023-03-15T15:02:51.996Z,3.25
2023-03-15T15:05:18.550Z,3.50
2023-03-15T15:07:45.368Z,3.45
2023-03-15T15:10:11.869Z,3.75
2023-03-15T15:12:38.376Z,3.70
2023-03-15T15:15:19.527Z,3.78
2023-03-15T15:17:46.027Z,4.00
2023-03-15T15:20:13.093Z,3.80
2023-03-15T15:22:40.269Z,3.97
2023-03-15T15:25:15.871Z,3.70
2023-03-15T15:27:42.928Z,4.05
2023-03-15T15:30:16.281Z,4.10
2023-03-15T15:32:46.513Z,4.07
2023-03-15T15:35:16.316Z,4.28
2023-03-15T15:37:44.934Z,3.92
2023-03-15T15:40:18.057Z,4.05
2023-03-15T15:42:45.418Z,4.68
2023-03-15T15:45:16.789Z,3.92
2023-03-15T15:47:44.058Z,4.13
2023-03-15T15:50:13.194Z,4.30
2023-03-15T15:52:42.300Z,4.05
2023-03-15T15:55:36.165Z,3.70
2023-03-15T15:58:04.454Z,4.03
2023-03-15T16:00:31.461Z,3.95
2023-03-15T16:02:58.755Z,4.28
2023-03-15T16:05:28.872Z,4.00
2023-03-15T16:07:56.900Z,3.92
2023-03-15T16:10:30.411Z,4.35
2023-03-15T16:12:58.322Z,5.10
2023-03-15T16:15:25.237Z,4.32
2023-03-15T16:17:51.711Z,4.45
2023-03-15T16:20:19.634Z,3.83
2023-03-15T16:22:53.435Z,4.10
2023-03-15T16:25:25.346Z,4.32
2023-03-15T16:27:54.193Z,3.78
2023-03-15T16:30:30.409Z,4.38
2023-03-15T16:32:57.680Z,4.00
2023-03-15T16:35:32.252Z,4.10
2023-03-15T16:37:59.482Z,4.38
2023-03-15T16:40:27.193Z,4.60
2023-03-15T16:42:54.593Z,4.70
2023-03-15T16:45:21.584Z,4.38
2023-03-15T16:47:48.670Z,4.70
2023-03-15T16:50:16.078Z,5.00
2023-03-15T16:52:45.164Z,4.60
2023-03-15T16:55:24.376Z,4.90
2023-03-15T16:57:51.204Z,4.78
2023-03-15T17:00:20.287Z,5.00
2023-03-15T17:02:49.225Z,4.80
2023-03-15T17:05:18.856Z,5.57
2023-03-15T17:07:47.730Z,5.60
2023-03-15T17:10:27.226Z,5.25
2023-03-15T17:12:55.773Z,5.10
2023-03-15T17:15:25.490Z,6.18
2023-03-15T17:17:53.227Z,6.28
2023-03-15T17:20:21.721Z,5.68
2023-03-15T17:22:53.704Z,5.95
2023-03-15T17:25:20.471Z,6.20
2023-03-15T17:27:48.698Z,6.47
2023-03-15T17:30:32.935Z,5.97
2023-03-15T17:32:59.992Z,5.80
2023-03-15T17:35:36.076Z,5.47
2023-03-15T17:38:05.890Z,5.72
2023-03-15T17:40:35.137Z,5.45
2023-03-15T17:43:03.656Z,5.68
2023-03-15T17:45:34.393Z,5.70
2023-03-15T17:48:01.559Z,6.53
2023-03-15T17:50:31.523Z,6.40
2023-03-15T17:53:14.966Z,6.40
2023-03-15T17:55:41.515Z,5.88
2023-03-15T17:58:21.498Z,6.15
2023-03-15T18:00:54.730Z,6.78
2023-03-15T18:03:22.193Z,7.15
2023-03-15T18:05:48.987Z,7.93
2023-03-15T18:08:18.634Z,8.55
2023-03-15T18:10:46.967Z,7.10
2023-03-15T18:13:17.618Z,7.20
2023-03-15T18:15:46.090Z,6.97
2023-03-15T18:18:12.821Z,6.72
2023-03-15T18:20:39.630Z,6.30
2023-03-15T18:23:06.442Z,6.95
2023-03-15T18:25:34.861Z,6.05
2023-03-15T18:28:01.889Z,6.18
2023-03-15T18:30:31.159Z,6.00
2023-03-15T18:32:58.179Z,6.53
2023-03-15T18:35:29.745Z,6.15
2023-03-15T18:37:57.441Z,5.82
2023-03-15T18:40:26.502Z,6.20
2023-03-15T18:42:54.867Z,6.78
2023-03-15T18:45:27.150Z,7.20
2023-03-15T18:47:53.840Z,6.93
2023-03-15T18:50:21.500Z,7.28
2023-03-15T18:52:48.480Z,7.60
2023-03-15T18:55:17.954Z,8.13
2023-03-15T18:57:46.178Z,8.07
2023-03-15T19:00:16.946Z,7.47
2023-03-15T19:02:46.088Z,7.50
2023-03-15T19:05:14.342Z,7.57
2023-03-15T19:07:41.603Z,7.63
2023-03-15T19:10:13.809Z,7.35
2023-03-15T19:12:46.460Z,7.32
2023-03-15T19:15:17.257Z,7.05
2023-03-15T19:17:45.299Z,7.67
2023-03-15T19:20:14.324Z,8.65
2023-03-15T19:22:41.447Z,9.18
2023-03-15T19:25:11.480Z,10.73
2023-03-15T19:27:38.185Z,11.43
2023-03-15T19:30:08.490Z,11.55
2023-03-15T19:32:35.892Z,9.25
2023-03-15T19:35:02.513Z,8.00
2023-03-15T19:37:29.015Z,7.85
2023-03-15T19:39:55.575Z,7.63
2023-03-15T19:42:22.341Z,7.43
2023-03-15T19:44:48.880Z,7.40
2023-03-15T19:47:15.467Z,7.85
2023-03-15T19:49:42.009Z,7.10
2023-03-15T19:52:09.487Z,7.60
2023-03-15T19:54:36.120Z,6.95
2023-03-15T19:57:02.708Z,6.45
2023-03-15T19:59:29.276Z,7.20
2023-03-15T20:01:56.095Z,6.78
2023-03-15T20:04:22.835Z,6.93
2023-03-15T20:06:49.375Z,6.97
2023-03-15T20:09:15.860Z,7.28
2023-03-15T20:11:42.358Z,8.90
2023-03-15T20:14:08.880Z,7.30
2023-03-15T20:16:35.427Z,7.47
2023-03-15T20:19:01.995Z,6.70
2023-03-15T20:21:29.592Z,7.28
2023-03-15T20:23:56.123Z,7.38
2023-03-15T20:26:23.794Z,7.05
2023-03-15T20:28:50.453Z,6.80
2023-03-15T20:31:18.934Z,6.25
2023-03-15T20:33:48.779Z,7.63
2023-03-15T20:36:17.026Z,6.53
2023-03-15T20:38:45.245Z,6.63
2023-03-15T20:41:14.611Z,6.63
2023-03-15T20:43:41.897Z,6.80
2023-03-15T20:46:09.916Z,6.85
2023-03-15T20:48:36.989Z,6.53
2023-03-15T20:51:04.830Z,6.80
2023-03-15T20:53:33.440Z,7.53
2023-03-15T20:56:00.334Z,7.03
2023-03-15T20:58:27.271Z,7.50
2023-03-15T21:01:08.755Z,7.18
2023-03-15T21:03:36.526Z,9.77
2023-03-15T21:06:05.984Z,7.18
2023-03-15T21:08:33.581Z,7.53
2023-03-15T21:11:01.104Z,9.32
2023-03-15T21:13:28.347Z,7.78
2023-03-15T21:15:55.469Z,8.07
2023-03-15T21:18:24.112Z,8.07
2023-03-15T21:21:02.500Z,8.27
2023-03-15T21:23:33.047Z,8.45
2023-03-15T21:26:03.200Z,8.90
2023-03-15T21:28:30.722Z,8.73
2023-03-15T21:30:58.081Z,8.68
2023-03-15T21:33:28.025Z,8.70
2023-03-15T21:35:56.110Z,10.63
2023-03-15T21:38:23.338Z,9.48
2023-03-15T21:40:52.560Z,8.23
2023-03-15T21:43:19.789Z,8.35
2023-03-15T21:45:46.680Z,8.88
2023-03-15T21:48:13.585Z,8.52
2023-03-15T21:50:41.722Z,7.60
2023-03-15T21:53:08.261Z,8.15
2023-03-15T21:55:34.870Z,8.00
2023-03-15T21:58:02.471Z,8.60
2023-03-15T22:00:29.836Z,8.07
2023-03-15T22:02:56.493Z,8.45
2023-03-15T22:05:23.241Z,8.30
2023-03-15T22:07:49.817Z,8.55
2023-03-15T22:10:17.044Z,8.38
2023-03-15T22:12:43.598Z,8.35
2023-03-15T22:15:10.445Z,7.72
2023-03-15T22:17:37.158Z,8.10
2023-03-15T22:20:16.985Z,8.15
2023-03-15T22:22:45.323Z,8.25
2023-03-15T22:25:11.930Z,8.00
2023-03-15T22:27:39.142Z,8.55
2023-03-15T22:30:07.031Z,9.45
2023-03-15T22:32:33.528Z,8.05
2023-03-15T22:35:00.125Z,8.20
2023-03-15T22:37:26.717Z,8.48
2023-03-15T22:39:53.192Z,8.27
2023-03-15T22:42:19.689Z,8.80
2023-03-15T22:44:46.156Z,8.23
2023-03-15T22:47:12.729Z,8.95
2023-03-15T22:49:39.257Z,8.25
2023-03-15T22:52:06.042Z,7.82
2023-03-15T22:54:32.541Z,8.30
2023-03-15T22:56:59.087Z,8.40
2023-03-15T22:59:28.947Z,8.60
2023-03-15T23:01:56.567Z,8.75
2023-03-15T23:04:23.881Z,9.30
2023-03-15T23:06:51.656Z,9.27
2023-03-15T23:09:18.294Z,8.93
2023-03-15T23:11:44.821Z,8.30
2023-03-15T23:14:11.453Z,8.40
2023-03-15T23:16:38.086Z,8.93
2023-03-15T23:19:04.974Z,8.90
2023-03-15T23:21:31.584Z,8.35
2023-03-15T23:23:58.101Z,8.43
2023-03-15T23:26:25.641Z,8.82
2023-03-15T23:28:53.881Z,8.43
2023-03-15T23:31:21.022Z,8.27
2023-03-15T23:33:47.658Z,8.60
2023-03-15T23:36:14.620Z,9.10
2023-03-15T23:38:41.336Z,8.55
2023-03-15T23:41:07.855Z,8.80
2023-03-15T23:43:34.485Z,9.23
2023-03-15T23:46:05.263Z,8.52
2023-03-15T23:48:35.562Z,8.32
2023-03-15T23:51:05.456Z,8.93
2023-03-15T23:53:32.323Z,8.40
2023-03-15T23:55:58.903Z,8.90
2023-03-15T23:58:25.656Z,9.07
